Time;durP1;ratioP1;P1;durP2;ratioP2;P2;SDS_P1;SDS_P2;PMS_P1;PMS_P2;Temp;Humidity;BMP_temperature;BMP_pressure;BME280_temperature;BME280_humidity;BME280_pressure;Samples;Min_cycle;Max_cycle;Signal;HPM_P1;HPM_P2
2022/10/11 00:00:10;;;;;;;1.10;1.00;;;;;;;15.35;100.00;100878.75;5090974;28;20205;-72
2022/10/11 00:02:36;;;;;;;3.55;1.27;;;;;;;15.29;100.00;100889.19;5090605;28;20201;-72
2022/10/11 00:05:05;;;;;;;1.27;0.90;;;;;;;15.42;100.00;100892.75;5090189;28;20198;-72
2022/10/11 00:07:32;;;;;;;0.80;0.80;;;;;;;15.32;100.00;100881.34;5090697;28;20198;-72
2022/10/11 00:09:59;;;;;;;2.00;1.02;;;;;;;15.36;100.00;100884.88;5090656;28;20662;-72
2022/10/11 00:12:26;;;;;;;2.67;1.10;;;;;;;15.30;100.00;100875.22;5090811;28;20191;-72
2022/10/11 00:14:52;;;;;;;0.80;0.80;;;;;;;15.23;100.00;100886.47;5090449;28;20579;-72
2022/10/11 00:17:19;;;;;;;2.10;1.10;;;;;;;15.16;100.00;100858.56;5090416;28;20221;-72
2022/10/11 00:19:46;;;;;;;1.35;1.00;;;;;;;15.27;100.00;100874.31;5090781;28;20198;-72
2022/10/11 00:22:14;;;;;;;1.42;1.00;;;;;;;15.36;100.00;100870.06;5081555;28;20214;-73
2022/10/11 00:24:41;;;;;;;1.48;0.98;;;;;;;15.25;100.00;100869.09;5056239;28;20190;-72
2022/10/11 00:27:08;;;;;;;2.63;1.20;;;;;;;15.17;100.00;100865.53;5090414;28;20205;-72
2022/10/11 00:29:34;;;;;;;1.02;0.90;;;;;;;15.06;100.00;100851.50;5090213;28;20572;-72
2022/10/11 00:32:01;;;;;;;1.27;0.90;;;;;;;15.19;100.00;100873.41;5090637;28;20198;-72
2022/10/11 00:34:28;;;;;;;0.90;0.90;;;;;;;15.01;100.00;100857.56;5092596;28;20213;-73
2022/10/11 00:36:55;;;;;;;1.20;0.90;;;;;;;14.89;100.00;100853.97;5094446;28;20209;-72
2022/10/11 00:39:23;;;;;;;1.80;1.10;;;;;;;15.00;100.00;100855.81;5094868;28;20585;-73
2022/10/11 00:41:50;;;;;;;1.75;1.05;;;;;;;14.89;100.00;100843.53;5094889;28;20210;-72
2022/10/11 00:44:18;;;;;;;1.73;1.10;;;;;;;14.56;100.00;100777.91;5075146;28;20570;-72
2022/10/11 00:46:51;;;;;;;2.30;1.30;;;;;;;14.92;100.00;100850.50;5094718;28;20197;-72
2022/10/11 00:49:24;;;;;;;2.25;1.17;;;;;;;14.97;100.00;100848.81;5094222;28;20202;-72
2022/10/11 00:51:54;;;;;;;1.58;0.98;;;;;;;14.92;100.00;100854.84;5094541;28;20194;-72
2022/10/11 00:54:27;;;;;;;2.45;1.15;;;;;;;14.87;100.00;100844.38;5093409;28;20237;-72
2022/10/11 00:56:59;;;;;;;1.17;0.95;;;;;;;14.93;100.00;100854.00;5094493;28;20649;-72
2022/10/11 00:59:29;;;;;;;1.42;1.10;;;;;;;14.85;100.00;100846.06;5094240;28;20201;-73
2022/10/11 01:01:56;;;;;;;1.02;0.95;;;;;;;14.73;100.00;100845.97;5094254;28;20190;-73
2022/10/11 01:04:23;;;;;;;1.02;0.90;;;;;;;14.74;100.00;100845.97;5093972;28;20213;-72
2022/10/11 01:06:51;;;;;;;1.27;0.95;;;;;;;14.83;100.00;100833.03;5092766;28;20206;-72
2022/10/11 01:09:20;;;;;;;0.80;0.80;;;;;;;14.76;100.00;100830.34;5076500;28;20252;-73
2022/10/11 01:11:50;;;;;;;1.40;0.90;;;;;;;14.82;100.00;100817.34;5088630;28;20224;-73
2022/10/11 01:14:58;;;;;;;1.08;0.95;;;;;;;14.76;100.00;100819.91;5093863;28;20226;-72
2022/10/11 01:17:34;;;;;;;2.65;2.25;;;;;;;14.66;100.00;100802.41;5093687;28;20622;-73
2022/10/11 01:20:31;;;;;;;0.80;0.80;;;;;;;14.80;100.00;100811.22;5094054;28;20657;-72
2022/10/11 01:23:34;;;;;;;1.00;0.93;;;;;;;14.79;100.00;100823.41;5075681;28;20277;-72
2022/10/11 01:26:27;;;;;;;0.77;0.77;;;;;;;14.73;100.00;100815.50;5093711;28;20202;-72
2022/10/11 01:29:10;;;;;;;1.92;0.98;;;;;;;14.74;100.00;100821.59;5094137;28;20198;-72
2022/10/11 01:31:46;;;;;;;0.80;0.80;;;;;;;14.69;100.00;100818.09;5093823;28;20309;-73
2022/10/11 01:34:21;;;;;;;1.67;0.90;;;;;;;14.68;100.00;100819.81;5093661;28;20209;-72
2022/10/11 01:37:01;;;;;;;1.05;0.90;;;;;;;14.62;100.00;100803.22;5072426;28;20204;-73
2022/10/11 01:39:33;;;;;;;1.65;1.00;;;;;;;14.68;100.00;100813.72;5093892;28;20205;-73
2022/10/11 01:42:04;;;;;;;0.98;0.90;;;;;;;14.68;100.00;100816.31;5092835;28;20202;-73
2022/10/11 01:44:31;;;;;;;0.82;0.82;;;;;;;14.45;100.00;100789.97;5093285;28;20202;-73
2022/10/11 01:46:59;;;;;;;1.30;0.90;;;;;;;14.67;100.00;100819.78;5093017;28;20198;-72
2022/10/11 01:49:26;;;;;;;0.95;0.90;;;;;;;14.53;100.00;100816.16;5093723;28;20194;-73
2022/10/11 01:51:55;;;;;;;1.35;1.20;;;;;;;14.57;100.00;100805.78;5063925;28;20881;-73
2022/10/11 01:54:36;;;;;;;1.23;0.90;;;;;;;14.72;100.00;100805.06;5073805;28;20222;-73
2022/10/11 01:57:31;;;;;;;1.05;0.90;;;;;;;14.73;100.00;100804.19;5093692;28;20190;-72
2022/10/11 02:00:07;;;;;;;1.17;1.08;;;;;;;14.63;100.00;100802.34;5080516;28;20202;-73
2022/10/11 02:02:51;;;;;;;1.48;0.98;;;;;;;14.64;100.00;100802.38;5092911;28;20229;-73
2022/10/11 02:05:24;;;;;;;1.17;1.00;;;;;;;14.55;100.00;100804.03;5093007;28;20198;-73
2022/10/11 02:07:59;;;;;;;1.75;0.95;;;;;;;14.57;100.00;100797.94;5092910;28;20206;-72
2022/10/11 02:10:30;;;;;;;2.13;1.00;;;;;;;14.53;100.00;100795.28;5093254;28;20657;-72
2022/10/11 02:13:03;;;;;;;0.85;0.85;;;;;;;14.38;100.00;100764.69;5093081;28;20853;-73
2022/10/11 02:15:32;;;;;;;1.02;0.90;;;;;;;14.55;100.00;100796.19;5093068;28;20202;-72
2022/10/11 02:18:04;;;;;;;1.10;0.95;;;;;;;14.59;100.00;100797.97;5045072;28;20250;-73
2022/10/11 02:20:34;;;;;;;0.80;0.80;;;;;;;14.54;100.00;100784.00;5061470;28;20198;-73
2022/10/11 02:23:08;;;;;;;1.27;0.90;;;;;;;14.51;100.00;100784.84;5044170;28;20194;-73
2022/10/11 02:25:36;;;;;;;1.75;0.95;;;;;;;14.54;100.00;100791.81;5090355;28;20248;-73
2022/10/11 02:28:08;;;;;;;3.75;1.33;;;;;;;14.62;100.00;100791.06;5092640;28;20201;-72
2022/10/11 02:30:41;;;;;;;0.95;0.80;;;;;;;14.51;100.00;100760.47;5092657;28;20198;-72
2022/10/11 02:33:13;;;;;;;1.42;1.00;;;;;;;14.74;100.00;100785.03;5073841;28;20639;-72
2022/10/11 02:35:44;;;;;;;1.05;0.90;;;;;;;14.75;100.00;100778.97;5092612;28;20194;-73
2022/10/11 02:38:17;;;;;;;0.80;0.80;;;;;;;14.83;100.00;100785.16;5092153;28;20232;-73
2022/10/11 02:40:49;;;;;;;1.02;0.90;;;;;;;14.73;100.00;100767.66;5084931;28;20274;-73
2022/10/11 02:43:22;;;;;;;1.17;0.90;;;;;;;14.83;100.00;100780.81;5092213;28;20220;-73
2022/10/11 02:45:53;;;;;;;2.10;1.10;;;;;;;14.81;100.00;100779.91;5092093;28;20681;-73
2022/10/11 02:48:23;;;;;;;2.70;1.10;;;;;;;14.96;100.00;100796.56;5092151;28;20213;-72
2022/10/11 02:50:51;;;;;;;1.50;0.90;;;;;;;14.92;100.00;100793.06;5092139;28;20200;-72
2022/10/11 02:53:18;;;;;;;2.05;1.05;;;;;;;14.90;100.00;100786.94;5090714;28;20190;-72
2022/10/11 02:55:45;;;;;;;1.38;0.90;;;;;;;14.93;100.00;100791.31;5090188;28;20206;-73
2022/10/11 02:58:12;;;;;;;0.93;0.90;;;;;;;14.86;100.00;100773.00;5071037;28;20199;-72
2022/10/11 03:00:38;;;;;;;1.42;1.00;;;;;;;14.89;100.00;100787.81;5071820;28;20213;-72
2022/10/11 03:03:05;;;;;;;1.50;0.90;;;;;;;14.86;100.00;100780.84;5072242;28;20822;-72
2022/10/11 03:05:39;;;;;;;2.15;1.00;;;;;;;15.07;100.00;100793.19;5071785;28;20252;-72
2022/10/11 03:08:06;;;;;;;0.90;0.90;;;;;;;14.95;100.00;100787.00;5087662;28;20198;-72
2022/10/11 03:10:33;;;;;;;1.75;1.10;;;;;;;14.97;100.00;100793.09;5080640;28;20195;-72
2022/10/11 03:13:00;;;;;;;0.90;0.90;;;;;;;14.88;100.00;100788.66;5091841;28;20233;-72
2022/10/11 03:15:27;;;;;;;1.08;0.90;;;;;;;14.75;100.00;100778.97;5087547;28;20316;-72
2022/10/11 03:17:54;;;;;;;1.95;1.08;;;;;;;14.76;100.00;100783.34;5091566;28;20229;-72
2022/10/11 03:20:21;;;;;;;0.80;0.80;;;;;;;14.73;100.00;100791.16;5090122;28;20271;-71
2022/10/11 03:22:49;;;;;;;1.55;0.90;;;;;;;14.77;100.00;100783.34;5072277;28;20440;-72
2022/10/11 03:25:17;;;;;;;1.15;0.80;;;;;;;14.85;100.00;100776.47;5090160;28;20801;-71
2022/10/11 03:27:43;;;;;;;0.93;0.82;;;;;;;14.76;100.00;100783.34;5091655;28;20206;-71
2022/10/11 03:30:12;;;;;;;1.67;0.90;;;;;;;14.78;100.00;100781.59;5091299;28;20737;-71
2022/10/11 03:32:38;;;;;;;2.92;1.20;;;;;;;14.52;100.00;100775.28;5035707;28;20678;-71
2022/10/11 03:35:06;;;;;;;1.50;1.00;;;;;;;14.49;100.00;100773.50;5070325;28;20658;-71
2022/10/11 03:37:33;;;;;;;1.23;0.90;;;;;;;14.39;100.00;100782.09;5039313;28;20205;-71
2022/10/11 03:40:02;;;;;;;1.25;1.00;;;;;;;14.25;100.00;100745.41;5090978;28;20206;-71
2022/10/11 03:42:29;;;;;;;1.23;1.00;;;;;;;14.25;100.00;100778.44;5090110;28;20200;-71
2022/10/11 03:44:56;;;;;;;0.95;0.88;;;;;;;14.20;100.00;100782.69;5055101;28;20278;-72
2022/10/11 03:47:22;;;;;;;1.48;0.90;;;;;;;14.48;100.00;100755.22;5090800;28;20361;-71
2022/10/11 03:49:49;;;;;;;1.23;0.90;;;;;;;14.48;100.00;100763.94;5091263;28;20221;-71
2022/10/11 03:52:16;;;;;;;2.08;1.02;;;;;;;14.37;100.00;100776.88;5090985;28;20202;-71
2022/10/11 03:54:43;;;;;;;1.02;0.90;;;;;;;14.32;100.00;100780.25;5090823;28;20230;-71
2022/10/11 03:57:11;;;;;;;1.10;0.90;;;;;;;14.30;100.00;100761.09;5091107;28;20203;-72
2022/10/11 03:59:37;;;;;;;0.88;0.88;;;;;;;14.47;100.00;100775.22;5091143;28;20202;-70
2022/10/11 04:02:04;;;;;;;1.00;1.00;;;;;;;14.30;100.00;100753.28;5055320;28;20198;-73
2022/10/11 04:04:31;;;;;;;0.80;0.80;;;;;;;14.28;100.00;100758.47;5090839;28;20213;-71
2022/10/11 04:06:58;;;;;;;0.80;0.80;;;;;;;14.31;100.00;100774.16;5090765;28;20198;-71
2022/10/11 04:09:25;;;;;;;0.82;0.82;;;;;;;14.28;100.00;100771.50;5090285;28;20201;-70
2022/10/11 04:11:51;;;;;;;0.70;0.70;;;;;;;14.30;100.00;100771.53;5090526;28;20669;-72
2022/10/11 04:14:19;;;;;;;0.80;0.80;;;;;;;14.28;100.00;100750.63;5090708;28;20283;-71
2022/10/11 04:16:46;;;;;;;0.70;0.70;;;;;;;14.41;100.00;100769.06;5054820;28;20689;-73
2022/10/11 04:19:14;;;;;;;0.70;0.70;;;;;;;14.20;100.00;100722.72;5091146;28;20190;-72
2022/10/11 04:21:41;;;;;;;0.70;0.70;;;;;;;14.52;100.00;100754.41;5080634;28;20209;-70
2022/10/11 04:24:10;;;;;;;0.60;0.60;;;;;;;14.67;100.00;100773.69;5088848;28;20194;-72
2022/10/11 04:26:37;;;;;;;0.70;0.70;;;;;;;14.61;100.00;100783.19;5075359;28;20543;-73
2022/10/11 04:29:04;;;;;;;0.60;0.60;;;;;;;14.46;100.00;100756.94;5078481;28;20209;-73
2022/10/11 04:31:33;;;;;;;0.70;0.70;;;;;;;14.64;100.00;100778.00;5072586;28;20207;-72
2022/10/11 04:33:59;;;;;;;0.73;0.73;;;;;;;14.62;100.00;100777.13;5057894;28;20206;-72
2022/10/11 04:36:26;;;;;;;1.35;1.35;;;;;;;14.64;100.00;100770.16;5071478;28;20230;-72
2022/10/11 04:38:55;;;;;;;0.80;0.80;;;;;;;14.65;100.00;100771.94;5050131;28;20679;-72
2022/10/11 04:41:22;;;;;;;0.80;0.80;;;;;;;14.76;100.00;100772.91;5056372;28;20211;-74
2022/10/11 04:43:49;;;;;;;0.80;0.80;;;;;;;14.83;100.00;100782.53;5057021;28;20206;-73
2022/10/11 04:46:15;;;;;;;0.80;0.80;;;;;;;14.58;100.00;100715.31;5076528;28;20267;-72
2022/10/11 04:48:44;;;;;;;0.70;0.70;;;;;;;15.00;100.00;100764.38;5090157;28;20220;-72
2022/10/11 04:51:10;;;;;;;0.70;0.70;;;;;;;15.08;100.00;100783.63;5078468;28;20202;-73
2022/10/11 04:53:37;;;;;;;0.70;0.70;;;;;;;15.20;100.00;100784.56;5083092;28;20204;-72
2022/10/11 04:56:06;;;;;;;0.70;0.70;;;;;;;15.46;100.00;100783.88;5039475;28;20222;-72
2022/10/11 04:58:35;;;;;;;0.70;0.70;;;;;;;15.42;100.00;100763.81;5063350;28;20210;-72
2022/10/11 05:01:02;;;;;;;0.70;0.70;;;;;;;15.59;100.00;100785.75;5069646;28;20201;-72
2022/10/11 05:03:29;;;;;;;0.80;0.80;;;;;;;15.65;100.00;100788.41;5070488;28;20209;-72
2022/10/11 05:05:57;;;;;;;0.80;0.80;;;;;;;15.75;100.00;100790.19;5082868;28;20198;-73
2022/10/11 05:08:24;;;;;;;0.70;0.70;;;;;;;15.71;100.00;100778.84;5090532;28;20213;-71
2022/10/11 05:10:57;;;;;;;0.63;0.63;;;;;;;15.90;100.00;100792.03;5087313;28;20213;-72
2022/10/11 05:13:25;;;;;;;0.80;0.80;;;;;;;15.72;100.00;100774.50;5078978;28;20234;-74
2022/10/11 05:15:51;;;;;;;0.70;0.70;;;;;;;15.76;100.00;100748.38;5079855;28;20647;-72
2022/10/11 05:18:18;;;;;;;0.65;0.65;;;;;;;15.98;100.00;100779.84;5073066;28;20307;-72
2022/10/11 05:20:45;;;;;;;0.70;0.70;;;;;;;16.10;100.00;100801.69;5052583;28;20214;-73
2022/10/11 05:23:14;;;;;;;0.60;0.60;;;;;;;16.28;100.00;100806.13;5073876;28;20215;-71
2022/10/11 05:25:40;;;;;;;0.70;0.70;;;;;;;16.18;100.00;100813.06;5073695;28;20229;-71
2022/10/11 05:28:07;;;;;;;0.60;0.60;;;;;;;16.26;100.00;100823.56;5076607;28;20213;-71
2022/10/11 05:30:34;;;;;;;0.70;0.70;;;;;;;16.27;100.00;100826.19;5079410;28;20285;-71
2022/10/11 05:33:01;;;;;;;0.80;0.80;;;;;;;16.13;100.00;100780.78;5074428;28;20206;-72
2022/10/11 05:35:27;;;;;;;0.70;0.70;;;;;;;16.34;100.00;100817.47;5073726;28;20237;-72
2022/10/11 05:37:54;;;;;;;0.70;0.70;;;;;;;16.31;100.00;100809.63;5037041;28;20207;-74
2022/10/11 05:40:22;;;;;;;0.60;0.60;;;;;;;16.59;100.00;100821.06;5077586;28;20215;-72
2022/10/11 05:42:49;;;;;;;0.77;0.77;;;;;;;16.44;100.00;100813.16;5073064;28;20297;-74
2022/10/11 05:45:16;;;;;;;0.70;0.70;;;;;;;16.58;100.00;100821.09;5087357;28;20194;-74
2022/10/11 05:47:43;;;;;;;0.70;0.70;;;;;;;16.50;100.00;100799.22;5080658;28;20267;-71
2022/10/11 05:50:10;;;;;;;0.70;0.70;;;;;;;16.30;100.00;100762.53;5078974;28;20215;-71
2022/10/11 05:52:37;;;;;;;0.80;0.80;;;;;;;16.45;100.00;100825.38;5070086;28;20210;-69
2022/10/11 05:55:04;;;;;;;2.97;2.85;;;;;;;16.50;100.00;100812.28;5083927;28;20226;-70
2022/10/11 05:57:32;;;;;;;0.60;0.60;;;;;;;16.89;100.00;100833.34;5087092;28;20635;-73
2022/10/11 05:59:59;;;;;;;0.60;0.60;;;;;;;16.47;100.00;100746.84;5069813;28;20198;-73
2022/10/11 06:02:26;;;;;;;0.60;0.60;;;;;;;17.05;100.00;100816.75;5075364;28;20207;-73
2022/10/11 06:04:53;;;;;;;0.70;0.70;;;;;;;17.09;100.00;100813.28;5062470;28;20222;-73
2022/10/11 06:07:20;;;;;;;0.75;0.75;;;;;;;16.95;100.00;100816.75;5080637;28;20214;-74
2022/10/11 06:09:46;;;;;;;0.70;0.70;;;;;;;16.98;100.00;100825.50;5090396;28;20994;-72
2022/10/11 06:12:14;;;;;;;0.60;0.60;;;;;;;17.04;100.00;100836.00;5074223;28;20206;-73
2022/10/11 06:14:42;;;;;;;0.70;0.70;;;;;;;17.50;100.00;100839.50;5074168;28;20229;-72
2022/10/11 06:17:09;;;;;;;0.70;0.70;;;;;;;17.59;100.00;100846.50;5095870;28;20257;-73
2022/10/11 06:19:36;;;;;;;0.75;0.75;;;;;;;17.84;100.00;100845.56;5088373;28;20202;-73
2022/10/11 06:22:02;;;;;;;0.70;0.70;;;;;;;17.88;100.00;100846.44;5073151;28;20207;-73
2022/10/11 06:24:29;;;;;;;0.60;0.60;;;;;;;17.89;100.00;100846.44;5073143;28;20195;-75
2022/10/11 06:26:56;;;;;;;0.70;0.70;;;;;;;18.06;100.00;100849.88;5062457;28;20220;-72
2022/10/11 06:29:23;;;;;;;0.60;0.60;;;;;;;18.20;100.00;100848.09;5060538;28;20210;-73
2022/10/11 06:31:51;;;;;;;0.70;0.70;;;;;;;18.41;100.00;100862.03;5059206;28;20200;-75
2022/10/11 06:34:17;;;;;;;0.73;0.73;;;;;;;18.26;100.00;100860.34;5061769;28;20656;-72
2022/10/11 06:36:44;;;;;;;0.63;0.63;;;;;;;18.32;100.00;100855.94;5074147;28;20673;-74
2022/10/11 06:39:11;;;;;;;0.60;0.60;;;;;;;18.55;100.00;100847.94;5071860;28;20970;-72
2022/10/11 06:41:38;;;;;;;0.60;0.60;;;;;;;18.65;97.83;100860.19;5072594;28;20214;-73
2022/10/11 06:44:05;;;;;;;0.70;0.70;;;;;;;18.41;96.41;100781.47;5073007;28;20211;-73
2022/10/11 06:46:32;;;;;;;0.70;0.70;;;;;;;18.43;96.74;100820.88;5080242;28;20218;-73
2022/10/11 06:49:01;;;;;;;0.68;0.68;;;;;;;18.62;96.75;100860.19;5072782;28;20237;-71
2022/10/11 06:51:28;;;;;;;0.63;0.63;;;;;;;18.68;96.77;100859.28;5075098;28;20206;-73
2022/10/11 06:53:57;;;;;;;0.60;0.60;;;;;;;18.28;97.08;100838.44;5062328;28;20738;-74
2022/10/11 06:56:26;;;;;;;0.70;0.70;;;;;;;18.44;96.72;100860.25;5055284;28;20230;-74
2022/10/11 06:58:54;;;;;;;0.80;0.80;;;;;;;18.08;99.30;100860.41;5065630;28;20200;-75
2022/10/11 07:01:22;;;;;;;0.73;0.73;;;;;;;18.09;98.18;100867.38;5063059;28;20216;-73
2022/10/11 07:03:50;;;;;;;0.60;0.60;;;;;;;18.08;99.32;100861.28;5069216;28;20198;-73
2022/10/11 07:06:20;;;;;;;0.60;0.60;;;;;;;18.01;98.80;100848.16;5062552;28;20210;-74
2022/10/11 07:08:48;;;;;;;0.75;0.75;;;;;;;17.89;100.00;100869.19;5053455;28;20203;-74
2022/10/11 07:11:16;;;;;;;0.70;0.70;;;;;;;17.75;100.00;100824.63;5051186;28;20200;-73
2022/10/11 07:13:43;;;;;;;0.70;0.70;;;;;;;18.08;99.07;100861.28;5067962;28;20214;-72
2022/10/11 07:16:12;;;;;;;0.70;0.70;;;;;;;18.52;96.94;100857.59;5069200;28;20318;-72
2022/10/11 07:18:40;;;;;;;0.60;0.60;;;;;;;18.32;97.61;100876.94;5035485;28;20239;-73
2022/10/11 07:21:08;;;;;;;0.60;0.60;;;;;;;18.37;97.75;100876.06;5053112;28;20760;-73
2022/10/11 07:23:36;;;;;;;0.88;0.88;;;;;;;17.95;100.00;100874.41;5063703;28;20202;-73
2022/10/11 07:26:04;;;;;;;0.70;0.70;;;;;;;18.01;99.79;100877.91;5064384;28;20230;-73
2022/10/11 07:28:31;;;;;;;0.70;0.70;;;;;;;18.01;99.90;100856.91;5066678;28;20229;-70
2022/10/11 07:30:58;;;;;;;0.93;0.93;;;;;;;18.10;99.81;100874.38;5075243;28;20582;-73
2022/10/11 07:33:25;;;;;;;1.30;1.30;;;;;;;18.24;100.00;100873.47;5072676;28;20201;-73
2022/10/11 07:35:56;;;;;;;0.60;0.60;;;;;;;18.64;97.96;100873.31;5071346;28;20222;-73
2022/10/11 07:38:25;;;;;;;0.60;0.60;;;;;;;18.78;95.54;100855.72;5076507;28;20202;-74
2022/10/11 07:40:53;;;;;;;0.70;0.70;;;;;;;18.59;95.43;100838.31;5071853;28;20206;-74
2022/10/11 07:43:20;;;;;;;0.70;0.70;;;;;;;18.48;95.65;100872.47;5067643;28;20206;-73
2022/10/11 07:45:53;;;;;;;0.70;0.70;;;;;;;18.70;94.99;100854.88;5084208;28;20214;-73
2022/10/11 07:48:19;;;;;;;0.70;0.70;;;;;;;19.07;93.05;100880.06;5075500;28;20194;-73
2022/10/11 07:50:46;;;;;;;0.70;0.70;;;;;;;19.29;90.13;100876.41;5075929;28;20738;-73
2022/10/11 07:53:13;;;;;;;0.80;0.80;;;;;;;19.38;89.03;100874.56;5078038;28;20195;-73
2022/10/11 07:55:40;;;;;;;0.60;0.60;;;;;;;19.70;86.96;100883.06;5070801;28;20284;-73
2022/10/11 07:58:09;;;;;;;0.60;0.60;;;;;;;19.77;86.40;100864.59;5085343;28;20198;-73
2022/10/11 08:00:36;;;;;;;0.70;0.70;;;;;;;19.33;84.88;100793.94;5087945;28;20224;-73
2022/10/11 08:03:03;;;;;;;0.60;0.60;;;;;;;19.95;83.95;100863.53;5080485;28;20195;-73
2022/10/11 08:05:31;;;;;;;0.60;0.60;;;;;;;19.86;83.35;100876.78;5080269;28;20201;-73
2022/10/11 08:07:58;;;;;;;0.80;0.80;;;;;;;19.91;83.44;100884.63;5084449;28;20647;-72
2022/10/11 08:10:24;;;;;;;0.77;0.77;;;;;;;19.97;82.58;100881.94;5042886;28;20215;-74
2022/10/11 08:12:52;;;;;;;0.70;0.70;;;;;;;20.06;82.67;100885.34;5083816;28;20206;-74
2022/10/11 08:15:20;;;;;;;0.70;0.70;;;;;;;20.21;80.28;100855.34;5069714;28;20218;-74
2022/10/11 08:17:47;;;;;;;0.70;0.70;;;;;;;20.32;80.37;100886.84;5078067;28;20694;-74
2022/10/11 08:20:14;;;;;;;0.77;0.77;;;;;;;20.38;79.65;100903.44;5054489;28;20598;-74
2022/10/11 08:22:41;;;;;;;0.70;0.70;;;;;;;20.38;77.04;100874.47;5070575;28;20655;-74
2022/10/11 08:25:08;;;;;;;0.60;0.60;;;;;;;20.47;78.63;100889.31;5073109;28;20747;-74
2022/10/11 08:27:35;;;;;;;0.70;0.70;;;;;;;20.36;76.47;100856.94;5051820;28;20207;-73
2022/10/11 08:30:02;;;;;;;0.70;0.70;;;;;;;20.23;76.88;100875.50;5075182;28;20280;-74
2022/10/11 08:32:31;;;;;;;0.70;0.70;;;;;;;20.60;77.85;100880.34;5069904;28;20678;-73
2022/10/11 08:34:57;;;;;;;0.80;0.80;;;;;;;20.58;77.10;100890.88;5077593;28;20210;-74
2022/10/11 08:37:24;;;;;;;0.63;0.63;;;;;;;20.50;77.41;100861.16;5074667;28;20214;-73
2022/10/11 08:39:51;;;;;;;0.70;0.70;;;;;;;20.89;76.69;100899.28;5077846;28;20203;-74
2022/10/11 08:42:28;;;;;;;0.60;0.60;;;;;;;21.11;75.33;100889.31;5078849;28;20202;-74
2022/10/11 08:44:59;;;;;;;0.70;0.70;;;;;;;21.22;73.08;100875.06;5070244;28;20211;-73
2022/10/11 08:47:33;;;;;;;1.00;1.00;;;;;;;21.32;72.51;100888.97;5051546;28;20202;-73
2022/10/11 08:50:01;;;;;;;0.60;0.60;;;;;;;21.39;70.86;100885.34;5080537;28;20225;-74
2022/10/11 08:52:34;;;;;;;0.70;0.70;;;;;;;21.32;69.91;100861.72;5075314;28;20203;-75
2022/10/11 08:55:04;;;;;;;0.70;0.70;;;;;;;21.48;69.95;100889.59;5071721;28;20674;-74
2022/10/11 08:57:35;;;;;;;0.70;0.70;;;;;;;21.44;69.03;100864.19;5075962;28;20205;-73
2022/10/11 09:00:06;;;;;;;0.80;0.80;;;;;;;21.50;69.68;100882.53;5074164;28;20218;-73
2022/10/11 09:02:44;;;;;;;0.80;0.80;;;;;;;20.99;71.54;100879.78;5076416;28;20199;-73
2022/10/11 09:05:16;;;;;;;0.60;0.60;;;;;;;21.12;72.49;100870.81;5083662;28;20194;-73
2022/10/11 09:07:54;;;;;;;0.70;0.70;;;;;;;21.38;72.90;100872.16;5058444;28;20205;-73
2022/10/11 09:10:50;;;;;;;0.70;0.70;;;;;;;21.50;71.54;100871.97;5090024;28;20210;-75
2022/10/11 09:13:42;;;;;;;0.70;0.70;;;;;;;21.50;71.69;100875.50;5040015;28;20216;-74
2022/10/11 09:16:21;;;;;;;0.70;0.70;;;;;;;21.22;73.62;100882.97;5053439;28;21011;-74
2022/10/11 09:19:09;;;;;;;0.70;0.70;;;;;;;21.23;74.25;100866.25;5051374;28;20264;-72
2022/10/11 09:21:42;;;;;;;0.60;0.60;;;;;;;21.44;73.81;100882.66;5044921;28;20203;-73
2022/10/11 09:24:30;;;;;;;0.70;0.70;;;;;;;21.55;74.17;100883.31;5039329;28;20246;-73
2022/10/11 09:27:01;;;;;;;0.70;0.70;;;;;;;21.82;72.90;100885.50;4989619;28;20204;-73
2022/10/11 09:29:46;;;;;;;0.60;0.60;;;;;;;21.80;73.81;100860.84;5046247;28;20215;-73
2022/10/11 09:32:14;;;;;;;0.70;0.70;;;;;;;22.03;71.89;100887.75;5050643;28;20726;-73
2022/10/11 09:34:43;;;;;;;0.70;0.70;;;;;;;22.37;69.05;100887.06;5002457;28;20204;-73
2022/10/11 09:37:19;;;;;;;0.70;0.70;;;;;;;22.71;66.83;100890.81;5044880;28;20709;-73
2022/10/11 09:39:50;;;;;;;0.70;0.70;;;;;;;22.86;65.48;100895.75;5049455;28;20219;-73
2022/10/11 09:42:17;;;;;;;0.70;0.70;;;;;;;22.36;66.64;100890.66;5045985;28;20204;-72
2022/10/11 09:44:47;;;;;;;0.85;0.85;;;;;;;22.75;65.59;100889.84;5048867;28;20592;-72
2022/10/11 09:47:18;;;;;;;0.70;0.70;;;;;;;22.57;64.81;100882.28;5050296;28;20207;-74
2022/10/11 09:49:50;;;;;;;0.70;0.70;;;;;;;22.47;65.88;100873.66;5056597;28;20205;-72
2022/10/11 09:52:20;;;;;;;0.70;0.70;;;;;;;22.24;65.25;100862.69;5080687;28;20692;-73
2022/10/11 09:54:49;;;;;;;0.60;0.60;;;;;;;22.51;74.59;100872.69;5068686;28;20617;-71
2022/10/11 09:57:21;;;;;;;0.70;0.70;;;;;;;22.01;66.64;100849.91;5072526;28;20288;-73
2022/10/11 10:00:03;;;;;;;0.60;0.60;;;;;;;21.87;68.57;100862.50;5072617;28;20206;-73
2022/10/11 10:02:31;;;;;;;0.70;0.70;;;;;;;22.15;78.52;100863.72;5079875;28;20751;-74
2022/10/11 10:05:15;;;;;;;0.70;0.70;;;;;;;22.49;67.42;100857.75;5078908;28;20574;-75
2022/10/11 10:07:59;;;;;;;0.70;0.70;;;;;;;22.76;63.61;100857.19;5074656;28;20207;-75
2022/10/11 10:10:29;;;;;;;0.60;0.60;;;;;;;22.84;65.21;100862.28;5080122;28;20263;-73
2022/10/11 10:12:59;;;;;;;0.70;0.70;;;;;;;22.96;62.80;100865.56;5058218;28;20570;-73
2022/10/11 10:15:29;;;;;;;0.70;0.70;;;;;;;22.70;62.13;100857.31;5072468;28;20206;-72
2022/10/11 10:17:57;;;;;;;0.80;0.80;;;;;;;22.86;62.69;100853.44;5072581;28;20325;-73
2022/10/11 10:20:28;;;;;;;0.68;0.68;;;;;;;22.41;62.54;100825.31;5090070;28;20224;-73
2022/10/11 10:22:55;;;;;;;1.05;1.05;;;;;;;22.52;61.56;100850.63;5074784;28;20203;-73
2022/10/11 10:25:30;;;;;;;0.70;0.70;;;;;;;22.63;60.73;100850.41;5054584;28;20652;-73
2022/10/11 10:27:59;;;;;;;0.60;0.60;;;;;;;22.81;60.05;100844.75;5076366;28;20284;-72
2022/10/11 10:30:26;;;;;;;0.60;0.60;;;;;;;22.75;60.18;100815.81;5068140;28;20590;-74
2022/10/11 10:32:59;;;;;;;0.80;0.80;;;;;;;23.17;59.08;100833.28;5075801;28;20610;-74
2022/10/11 10:35:31;;;;;;;0.70;0.70;;;;;;;22.80;58.21;100799.78;5058155;28;20233;-75
2022/10/11 10:38:08;;;;;;;0.68;0.68;;;;;;;22.78;58.95;100823.66;5075812;28;20226;-72
2022/10/11 10:40:42;;;;;;;1.13;1.13;;;;;;;22.81;59.06;100796.25;5037911;28;20202;-73
2022/10/11 10:43:18;;;;;;;0.70;0.70;;;;;;;22.63;60.26;100821.31;5069462;28;20213;-72
2022/10/11 10:46:12;;;;;;;0.60;0.60;;;;;;;22.57;61.80;100809.13;5072147;28;20194;-73
2022/10/11 10:48:45;;;;;;;1.35;1.35;;;;;;;22.35;62.50;100775.25;5082828;28;20661;-73
2022/10/11 10:51:22;;;;;;;0.65;0.65;;;;;;;22.06;63.94;100819.03;5080047;28;20206;-73
2022/10/11 10:53:55;;;;;;;0.70;0.70;;;;;;;21.69;66.47;100788.91;5086132;28;20240;-73
2022/10/11 10:56:27;;;;;;;0.70;0.70;;;;;;;22.36;64.03;100806.06;5081216;28;20230;-73
2022/10/11 10:59:14;;;;;;;0.60;0.60;;;;;;;22.35;63.56;100792.00;5084874;28;20194;-73
2022/10/11 11:01:50;;;;;;;0.60;0.60;;;;;;;22.46;63.61;100783.81;5057411;28;20715;-73
2022/10/11 11:04:27;;;;;;;0.60;0.60;;;;;;;22.92;63.19;100799.53;5078884;28;20703;-73
2022/10/11 11:06:59;;;;;;;0.70;0.70;;;;;;;22.58;62.33;100804.72;5079896;28;20636;-73
2022/10/11 11:09:38;;;;;;;0.60;0.60;;;;;;;22.21;62.79;100792.28;5071873;28;20203;-74
2022/10/11 11:12:18;;;;;;;0.60;0.60;;;;;;;22.13;63.22;100772.22;5071129;28;20209;-73
2022/10/11 11:14:53;;;;;;;0.70;0.70;;;;;;;21.36;65.65;100747.34;5071572;28;20956;-74
2022/10/11 11:17:30;;;;;;;0.57;0.57;;;;;;;21.64;66.43;100769.66;5035779;28;20292;-74
2022/10/11 11:20:23;;;;;;;1.02;1.02;;;;;;;21.39;65.22;100691.84;5057645;28;20720;-73
2022/10/11 11:22:59;;;;;;;0.70;0.70;;;;;;;22.19;64.11;100778.22;5018496;28;20212;-72
2022/10/11 11:25:35;;;;;;;0.70;0.70;;;;;;;22.06;63.87;100779.41;4975030;28;20278;-73
2022/10/11 11:28:31;;;;;;;0.70;0.70;;;;;;;22.23;63.93;100781.66;5023238;28;20607;-74
2022/10/11 11:31:07;;;;;;;0.70;0.70;;;;;;;22.28;63.76;100781.59;4959697;28;20199;-74
2022/10/11 11:33:46;;;;;;;0.60;0.60;;;;;;;22.84;62.89;100780.31;4952583;28;20206;-73